Time;durP1;ratioP1;P1;durP2;ratioP2;P2;SDS_P1;SDS_P2;PMS_P1;PMS_P2;Temp;Humidity;BMP_temperature;BMP_pressure;BME280_temperature;BME280_humidity;BME280_pressure;Samples;Min_cycle;Max_cycle;Signal;HPM_P1;HPM_P2
2021/08/30 00:00:17;;;;;;;5.15;2.22;;;;;;;;;;5011675;28;20048;-52
2021/08/30 00:02:44;;;;;;;3.60;2.42;;;;;;;;;;5011195;28;20073;-44
2021/08/30 00:05:11;;;;;;;4.47;2.42;;;;;;;;;;5011167;28;20038;-49
2021/08/30 00:07:38;;;;;;;4.85;2.40;;;;;;;;;;4998637;28;20104;-46
2021/08/30 00:10:06;;;;;;;4.50;2.92;;;;;;;;;;4997257;28;20088;-49
2021/08/30 00:12:39;;;;;;;5.07;2.92;;;;;;;;;;5010377;28;20456;-46
2021/08/30 00:15:07;;;;;;;3.90;2.45;;;;;;;;;;5010336;28;20120;-45
2021/08/30 00:17:34;;;;;;;3.55;2.45;;;;;;;;;;5005746;28;20128;-45
2021/08/30 00:20:03;;;;;;;3.60;2.50;;;;;;;;;;5010488;28;20045;-45
2021/08/30 00:22:29;;;;;;;3.53;2.45;;;;;;;;;;5011991;28;20124;-45
2021/08/30 00:24:56;;;;;;;4.78;2.60;;;;;;;;;;5008672;28;20048;-49
2021/08/30 00:27:23;;;;;;;3.60;2.40;;;;;;;;;;4993615;28;20046;-46
2021/08/30 00:29:55;;;;;;;4.50;2.30;;;;;;;;;;5010363;28;20052;-45
2021/08/30 00:32:23;;;;;;;4.65;2.72;;;;;;;;;;5011104;28;20049;-52
2021/08/30 00:34:49;;;;;;;4.00;2.60;;;;;;;;;;5005440;28;20128;-45
2021/08/30 00:37:16;;;;;;;3.53;2.60;;;;;;;;;;5010885;28;20491;-51
2021/08/30 00:39:44;;;;;;;4.32;2.50;;;;;;;;;;4998294;28;20500;-47
2021/08/30 00:42:11;;;;;;;4.90;2.70;;;;;;;;;;5001408;28;20044;-50
2021/08/30 00:44:38;;;;;;;3.50;2.40;;;;;;;;;;5010286;28;20073;-48
2021/08/30 00:47:04;;;;;;;4.78;3.00;;;;;;;;;;5006639;28;20070;-47
2021/08/30 00:49:31;;;;;;;4.03;2.67;;;;;;;;;;5007376;28;20041;-47
2021/08/30 00:51:58;;;;;;;4.13;2.83;;;;;;;;;;5010965;28;20504;-48
2021/08/30 00:54:25;;;;;;;3.55;2.30;;;;;;;;;;5007768;28;20080;-48
2021/08/30 00:56:52;;;;;;;3.35;2.45;;;;;;;;;;5010724;28;20105;-46
2021/08/30 00:59:20;;;;;;;3.28;2.42;;;;;;;;;;5007488;28;20521;-45
2021/08/30 01:01:46;;;;;;;3.40;2.53;;;;;;;;;;5011702;28;20050;-45
2021/08/30 01:04:15;;;;;;;4.78;2.78;;;;;;;;;;5000984;28;20060;-47
2021/08/30 01:06:41;;;;;;;3.90;3.17;;;;;;;;;;5009518;28;20136;-50
2021/08/30 01:09:15;;;;;;;4.30;2.60;;;;;;;;;;5003445;28;20050;-48
2021/08/30 01:11:46;;;;;;;3.95;2.85;;;;;;;;;;5004261;28;20049;-50
2021/08/30 01:14:14;;;;;;;3.85;2.40;;;;;;;;;;5009969;28;20042;-49
2021/08/30 01:16:41;;;;;;;4.15;2.60;;;;;;;;;;5007790;28;20046;-48
2021/08/30 01:19:13;;;;;;;3.70;2.53;;;;;;;;;;5005645;28;20511;-51
2021/08/30 01:21:40;;;;;;;3.65;2.58;;;;;;;;;;5000152;28;20103;-47
2021/08/30 01:24:09;;;;;;;4.07;2.90;;;;;;;;;;5009804;28;20049;-47
2021/08/30 01:26:41;;;;;;;3.15;2.40;;;;;;;;;;5010637;28;20052;-46
2021/08/30 01:29:28;;;;;;;4.78;2.95;;;;;;;;;;5011824;28;20088;-47
2021/08/30 01:32:02;;;;;;;3.78;2.70;;;;;;;;;;5001270;28;20221;-50
2021/08/30 01:34:30;;;;;;;4.03;2.67;;;;;;;;;;5010114;28;20057;-49
2021/08/30 01:36:57;;;;;;;4.05;2.85;;;;;;;;;;5007911;28;20072;-46
2021/08/30 01:39:30;;;;;;;3.80;2.90;;;;;;;;;;5004121;28;20042;-49
2021/08/30 01:41:58;;;;;;;3.83;2.22;;;;;;;;;;5010582;28;20049;-48
2021/08/30 01:44:26;;;;;;;4.78;2.90;;;;;;;;;;5010627;28;20042;-48
2021/08/30 01:46:54;;;;;;;4.65;2.45;;;;;;;;;;5010966;28;20121;-47
2021/08/30 01:49:23;;;;;;;5.22;2.83;;;;;;;;;;5010721;28;20117;-50
2021/08/30 01:51:50;;;;;;;4.30;3.20;;;;;;;;;;5012371;28;20050;-48
2021/08/30 01:54:19;;;;;;;4.00;2.70;;;;;;;;;;5013505;28;20419;-50
2021/08/30 01:56:49;;;;;;;3.95;2.78;;;;;;;;;;5014724;28;20057;-50
2021/08/30 02:02:01;;;;;;;5.10;2.80;;;;;;;;;;5014087;28;20512;-52
2021/08/30 02:04:28;;;;;;;4.18;2.58;;;;;;;;;;5014350;28;20042;-49
2021/08/30 02:06:55;;;;;;;3.60;2.28;;;;;;;;;;5011703;28;20046;-45
2021/08/30 02:09:22;;;;;;;3.85;2.42;;;;;;;;;;5005916;28;20448;-48
2021/08/30 02:11:49;;;;;;;4.20;2.70;;;;;;;;;;5010764;28;20034;-47
2021/08/30 02:14:16;;;;;;;3.63;2.50;;;;;;;;;;5013906;28;20487;-45
2021/08/30 02:16:42;;;;;;;3.67;2.50;;;;;;;;;;5014014;28;20050;-51
2021/08/30 02:19:18;;;;;;;5.45;2.65;;;;;;;;;;4997308;28;20039;-45
2021/08/30 02:21:54;;;;;;;3.92;2.78;;;;;;;;;;5009476;28;20403;-47
2021/08/30 02:24:23;;;;;;;4.82;2.65;;;;;;;;;;5013619;28;20045;-45
2021/08/30 02:26:57;;;;;;;4.35;3.25;;;;;;;;;;5008352;28;20039;-45
2021/08/30 02:29:26;;;;;;;4.30;2.65;;;;;;;;;;5013885;28;20042;-45
2021/08/30 02:32:03;;;;;;;5.72;2.72;;;;;;;;;;5003743;28;20044;-46
2021/08/30 02:34:30;;;;;;;3.72;2.72;;;;;;;;;;4994259;28;20047;-48
2021/08/30 02:36:59;;;;;;;3.78;2.60;;;;;;;;;;5008690;28;20042;-48
2021/08/30 02:39:26;;;;;;;4.70;3.00;;;;;;;;;;5004429;28;20042;-47
2021/08/30 02:41:54;;;;;;;4.20;2.50;;;;;;;;;;5012035;28;20046;-49
2021/08/30 02:44:21;;;;;;;5.22;3.05;;;;;;;;;;5013288;28;20042;-45
2021/08/30 02:46:48;;;;;;;5.55;2.45;;;;;;;;;;5010569;28;20513;-44
2021/08/30 02:49:15;;;;;;;3.40;2.38;;;;;;;;;;5013590;28;20052;-44
2021/08/30 02:51:43;;;;;;;3.70;2.40;;;;;;;;;;5012676;28;20672;-46
2021/08/30 02:54:11;;;;;;;4.18;2.58;;;;;;;;;;5013174;28;20393;-46
2021/08/30 02:56:41;;;;;;;4.60;2.78;;;;;;;;;;5010513;28;20118;-45
2021/08/30 02:59:08;;;;;;;4.22;2.53;;;;;;;;;;5010019;28;20043;-46
2021/08/30 03:01:35;;;;;;;4.70;2.90;;;;;;;;;;5011541;28;20161;-50
2021/08/30 03:04:03;;;;;;;4.03;2.90;;;;;;;;;;5013272;28;20575;-47
2021/08/30 03:06:30;;;;;;;5.43;3.22;;;;;;;;;;5009160;28;20690;-46
2021/08/30 03:08:57;;;;;;;5.95;3.45;;;;;;;;;;5007804;28;20042;-46
2021/08/30 03:11:25;;;;;;;5.05;3.25;;;;;;;;;;5004836;28;20373;-47
2021/08/30 03:13:52;;;;;;;7.05;3.50;;;;;;;;;;5012504;28;20060;-46
2021/08/30 03:16:20;;;;;;;4.45;3.05;;;;;;;;;;5011146;28;20046;-46
2021/08/30 03:18:47;;;;;;;4.00;2.63;;;;;;;;;;5011857;28;20065;-47
2021/08/30 03:21:14;;;;;;;4.10;2.90;;;;;;;;;;5012237;28;20125;-47
2021/08/30 03:23:41;;;;;;;5.53;3.00;;;;;;;;;;5011473;28;20079;-47
2021/08/30 03:26:08;;;;;;;4.60;3.15;;;;;;;;;;5012182;28;20052;-47
2021/08/30 03:28:36;;;;;;;5.22;3.20;;;;;;;;;;4995728;28;20046;-45
2021/08/30 03:31:03;;;;;;;4.82;3.13;;;;;;;;;;5012026;28;20513;-46
2021/08/30 03:33:31;;;;;;;4.45;2.80;;;;;;;;;;5012074;28;20143;-50
2021/08/30 03:35:58;;;;;;;4.93;3.50;;;;;;;;;;5009657;28;20045;-47
2021/08/30 03:38:26;;;;;;;4.70;3.00;;;;;;;;;;5011393;28;20121;-46
2021/08/30 03:40:53;;;;;;;5.60;3.45;;;;;;;;;;5009738;28;20412;-50
2021/08/30 03:43:20;;;;;;;5.18;3.42;;;;;;;;;;5011998;28;20410;-48
2021/08/30 03:45:47;;;;;;;5.18;3.08;;;;;;;;;;5010561;28;20214;-48
2021/08/30 03:48:14;;;;;;;5.13;3.65;;;;;;;;;;5013044;28;20416;-50
2021/08/30 03:50:41;;;;;;;7.57;3.75;;;;;;;;;;5008123;28;20040;-46
2021/08/30 03:53:08;;;;;;;5.68;3.97;;;;;;;;;;5011862;28;20046;-48
2021/08/30 03:55:35;;;;;;;6.45;4.20;;;;;;;;;;5010951;28;20050;-47
2021/08/30 03:58:03;;;;;;;6.80;3.88;;;;;;;;;;4999311;28;20093;-50
2021/08/30 04:00:30;;;;;;;4.85;3.78;;;;;;;;;;4997888;28;20038;-47
2021/08/30 04:02:58;;;;;;;6.75;3.88;;;;;;;;;;5011791;28;20080;-45
2021/08/30 04:05:28;;;;;;;4.60;3.70;;;;;;;;;;5003416;28;20050;-45
2021/08/30 04:07:59;;;;;;;7.10;3.70;;;;;;;;;;5010477;28;20054;-49
2021/08/30 04:10:27;;;;;;;5.45;3.10;;;;;;;;;;5007924;28;20486;-46
2021/08/30 04:12:55;;;;;;;4.95;3.40;;;;;;;;;;5010481;28;20483;-47
2021/08/30 04:15:22;;;;;;;4.72;2.95;;;;;;;;;;5011449;28;20038;-46
2021/08/30 04:17:49;;;;;;;6.30;3.25;;;;;;;;;;5011524;28;20049;-48
2021/08/30 04:20:16;;;;;;;7.82;3.42;;;;;;;;;;5006765;28;20056;-48
2021/08/30 04:22:43;;;;;;;4.55;3.30;;;;;;;;;;5009579;28;20075;-46
2021/08/30 04:25:10;;;;;;;4.15;2.60;;;;;;;;;;5010538;28;20038;-45
2021/08/30 04:27:37;;;;;;;5.85;3.00;;;;;;;;;;5007204;28;20073;-48
2021/08/30 04:30:04;;;;;;;4.72;2.78;;;;;;;;;;5001096;28;20496;-46
2021/08/30 04:32:34;;;;;;;5.25;2.67;;;;;;;;;;5010392;28;20042;-46
2021/08/30 04:35:01;;;;;;;4.07;2.50;;;;;;;;;;5010632;28;20438;-49
2021/08/30 04:37:27;;;;;;;3.95;2.60;;;;;;;;;;5044659;23;20041;-46
2021/08/30 04:39:54;;;;;;;5.13;2.50;;;;;;;;;;5019866;28;20143;-49
2021/08/30 04:42:21;;;;;;;4.22;2.80;;;;;;;;;;5030985;28;20076;-47
2021/08/30 04:44:49;;;;;;;4.18;2.50;;;;;;;;;;5028593;28;20037;-47
2021/08/30 04:47:16;;;;;;;3.75;2.25;;;;;;;;;;5030196;28;20140;-48
2021/08/30 04:49:43;;;;;;;3.60;2.28;;;;;;;;;;5017564;28;20052;-46
2021/08/30 04:52:10;;;;;;;4.45;2.15;;;;;;;;;;5030768;28;20562;-48
2021/08/30 04:54:37;;;;;;;6.80;3.00;;;;;;;;;;5030115;28;20051;-50
2021/08/30 04:57:03;;;;;;;3.35;2.10;;;;;;;;;;5023234;28;20452;-50
2021/08/30 04:59:30;;;;;;;3.92;2.40;;;;;;;;;;5031031;28;20048;-51
2021/08/30 05:01:58;;;;;;;4.18;2.22;;;;;;;;;;5031628;28;20051;-46
2021/08/30 05:04:26;;;;;;;4.50;2.60;;;;;;;;;;5030032;28;20219;-47
2021/08/30 05:06:53;;;;;;;4.00;2.35;;;;;;;;;;5023240;28;20057;-49
2021/08/30 05:09:19;;;;;;;4.20;2.58;;;;;;;;;;5022715;28;20042;-48
2021/08/30 05:11:46;;;;;;;3.85;2.35;;;;;;;;;;5023943;28;20052;-51
2021/08/30 05:14:13;;;;;;;3.50;2.40;;;;;;;;;;5030089;28;20038;-50
2021/08/30 05:16:39;;;;;;;4.25;2.95;;;;;;;;;;5029363;28;20047;-50
2021/08/30 05:19:06;;;;;;;4.25;2.67;;;;;;;;;;5031292;28;20043;-50
2021/08/30 05:21:33;;;;;;;4.65;2.47;;;;;;;;;;5033413;28;20049;-47
2021/08/30 05:24:01;;;;;;;4.03;2.53;;;;;;;;;;5023076;28;20121;-50
2021/08/30 05:26:28;;;;;;;6.05;2.58;;;;;;;;;;5028635;28;20111;-47
2021/08/30 05:28:54;;;;;;;3.70;2.28;;;;;;;;;;5035332;28;20124;-50
2021/08/30 05:31:21;;;;;;;4.50;2.80;;;;;;;;;;5035963;28;20069;-50
2021/08/30 05:33:48;;;;;;;5.65;2.88;;;;;;;;;;5033807;28;20445;-48
2021/08/30 05:36:15;;;;;;;4.07;2.58;;;;;;;;;;5025563;28;20149;-50
2021/08/30 05:38:41;;;;;;;3.70;2.30;;;;;;;;;;5030188;28;20034;-47
2021/08/30 05:41:08;;;;;;;3.63;2.33;;;;;;;;;;5028802;28;20076;-48
2021/08/30 05:43:35;;;;;;;3.55;2.40;;;;;;;;;;5032762;28;20528;-48
2021/08/30 05:46:02;;;;;;;3.78;2.30;;;;;;;;;;5032124;28;20040;-48
2021/08/30 05:48:29;;;;;;;3.08;1.88;;;;;;;;;;5028666;28;20043;-51
2021/08/30 05:50:55;;;;;;;3.70;2.03;;;;;;;;;;5031996;28;20069;-48
2021/08/30 05:53:22;;;;;;;2.80;1.90;;;;;;;;;;5031918;28;20120;-49
2021/08/30 05:55:49;;;;;;;3.30;2.10;;;;;;;;;;5028166;28;20494;-47
2021/08/30 05:58:16;;;;;;;2.47;1.73;;;;;;;;;;5033205;28;20128;-49
2021/08/30 06:00:42;;;;;;;3.90;2.70;;;;;;;;;;5032316;28;20033;-47
2021/08/30 06:03:10;;;;;;;3.10;2.15;;;;;;;;;;5032297;28;20491;-47
2021/08/30 06:05:37;;;;;;;2.53;1.80;;;;;;;;;;5028774;28;20050;-48
2021/08/30 06:08:03;;;;;;;3.40;2.28;;;;;;;;;;5031946;28;20445;-48
2021/08/30 06:10:30;;;;;;;2.85;1.77;;;;;;;;;;5030501;28;20132;-50
2021/08/30 06:12:57;;;;;;;2.45;1.52;;;;;;;;;;5029977;28;20106;-51
2021/08/30 06:15:24;;;;;;;2.50;1.77;;;;;;;;;;5031502;28;20044;-51
2021/08/30 06:17:51;;;;;;;3.22;1.52;;;;;;;;;;5031145;28;20041;-50
2021/08/30 06:20:18;;;;;;;2.80;1.60;;;;;;;;;;5031614;28;20046;-49
2021/08/30 06:22:45;;;;;;;2.53;1.67;;;;;;;;;;5029524;28;20050;-43
2021/08/30 06:25:12;;;;;;;2.70;1.65;;;;;;;;;;5030565;28;20049;-48
2021/08/30 06:27:55;;;;;;;2.80;1.70;;;;;;;;;;5020113;28;20096;-45
2021/08/30 06:30:22;;;;;;;3.40;1.98;;;;;;;;;;5031219;28;20041;-54
2021/08/30 06:32:49;;;;;;;4.32;1.95;;;;;;;;;;5031216;28;20049;-48
2021/08/30 06:35:16;;;;;;;1.92;1.38;;;;;;;;;;5027947;28;20037;-52
2021/08/30 06:37:43;;;;;;;3.17;1.80;;;;;;;;;;4992357;28;1139770;-49
2021/08/30 06:40:10;;;;;;;2.80;1.60;;;;;;;;;;5029709;28;20052;-46
2021/08/30 06:42:37;;;;;;;5.78;1.88;;;;;;;;;;5030628;28;20405;-49
2021/08/30 06:45:04;;;;;;;2.45;1.40;;;;;;;;;;5032393;28;20113;-44
2021/08/30 06:47:31;;;;;;;2.10;1.30;;;;;;;;;;5030412;28;20124;-48
2021/08/30 06:49:58;;;;;;;1.65;1.30;;;;;;;;;;5031555;28;20041;-49
2021/08/30 06:52:25;;;;;;;1.88;1.17;;;;;;;;;;5032194;28;20128;-50
2021/08/30 06:54:51;;;;;;;1.67;1.10;;;;;;;;;;5030172;28;20055;-50
2021/08/30 06:57:18;;;;;;;3.40;1.15;;;;;;;;;;5026463;28;20132;-48
2021/08/30 06:59:45;;;;;;;2.42;1.30;;;;;;;;;;5032316;28;20053;-56
2021/08/30 07:02:11;;;;;;;3.60;1.10;;;;;;;;;;5033002;28;20045;-55
2021/08/30 07:04:39;;;;;;;6.00;1.23;;;;;;;;;;5027850;28;20042;-55
2021/08/30 07:07:05;;;;;;;3.13;1.33;;;;;;;;;;5027848;28;20461;-50
2021/08/30 07:09:32;;;;;;;1.48;0.90;;;;;;;;;;5024847;28;20442;-53
2021/08/30 07:11:59;;;;;;;2.38;0.98;;;;;;;;;;5026279;28;20129;-54
2021/08/30 07:14:26;;;;;;;2.05;1.10;;;;;;;;;;5033571;28;20045;-52
2021/08/30 07:16:52;;;;;;;5.80;1.30;;;;;;;;;;5033873;28;20136;-51
2021/08/30 07:19:19;;;;;;;1.30;0.90;;;;;;;;;;5030455;28;20042;-51
2021/08/30 07:21:46;;;;;;;1.35;0.80;;;;;;;;;;5033627;28;20045;-54
2021/08/30 07:24:13;;;;;;;3.63;1.10;;;;;;;;;;5031274;28;20128;-56
2021/08/30 07:26:40;;;;;;;2.25;1.00;;;;;;;;;;5032765;28;20059;-53
2021/08/30 07:29:07;;;;;;;1.95;1.17;;;;;;;;;;5029823;28;20037;-55
2021/08/30 07:31:34;;;;;;;1.85;1.02;;;;;;;;;;5032623;28;20037;-53
2021/08/30 07:34:00;;;;;;;2.00;1.10;;;;;;;;;;5033197;28;20073;-53
2021/08/30 07:36:27;;;;;;;3.17;1.10;;;;;;;;;;5032165;28;20052;-54
2021/08/30 07:38:54;;;;;;;1.23;0.90;;;;;;;;;;5028175;28;20100;-52
2021/08/30 07:41:21;;;;;;;1.95;0.93;;;;;;;;;;5031879;28;20117;-53
2021/08/30 07:43:47;;;;;;;1.95;1.05;;;;;;;;;;5032275;28;20045;-54
2021/08/30 07:46:19;;;;;;;1.80;1.25;;;;;;;;;;5030474;28;20041;-56
2021/08/30 07:48:47;;;;;;;2.50;1.00;;;;;;;;;;5032416;28;20041;-55
2021/08/30 07:51:13;;;;;;;2.55;1.23;;;;;;;;;;5028736;28;20047;-52
2021/08/30 07:53:40;;;;;;;1.75;1.20;;;;;;;;;;5027226;28;20033;-52
2021/08/30 07:56:07;;;;;;;1.58;0.93;;;;;;;;;;5033814;28;20029;-53
2021/08/30 07:58:34;;;;;;;2.42;1.00;;;;;;;;;;5031647;28;20563;-56
2021/08/30 08:01:01;;;;;;;1.00;0.90;;;;;;;;;;5031153;28;20117;-53
2021/08/30 08:03:28;;;;;;;1.45;1.20;;;;;;;;;;5030048;28;20045;-57
2021/08/30 08:05:55;;;;;;;1.25;1.10;;;;;;;;;;5031712;28;20056;-56
2021/08/30 08:08:21;;;;;;;2.08;1.20;;;;;;;;;;5029347;28;20124;-55
2021/08/30 08:10:51;;;;;;;2.15;1.20;;;;;;;;;;5023329;28;20095;-52
2021/08/30 08:13:18;;;;;;;3.30;1.35;;;;;;;;;;5033030;28;20129;-55
2021/08/30 08:15:46;;;;;;;2.72;1.38;;;;;;;;;;5040907;28;20474;-49
2021/08/30 08:18:12;;;;;;;3.30;1.58;;;;;;;;;;5029157;28;20079;-52
2021/08/30 08:20:39;;;;;;;2.15;1.20;;;;;;;;;;5012918;28;20037;-53
2021/08/30 08:23:06;;;;;;;2.40;1.40;;;;;;;;;;5027589;28;20045;-53
2021/08/30 08:25:34;;;;;;;3.17;1.85;;;;;;;;;;5022509;28;20064;-55
2021/08/30 08:28:04;;;;;;;5.18;1.70;;;;;;;;;;5026465;28;20420;-54
2021/08/30 08:30:32;;;;;;;2.95;1.80;;;;;;;;;;5031592;28;20034;-52
2021/08/30 08:32:59;;;;;;;3.13;2.00;;;;;;;;;;5029070;28;20046;-52
2021/08/30 08:35:26;;;;;;;2.53;1.63;;;;;;;;;;5028143;28;20465;-52
2021/08/30 08:37:53;;;;;;;2.13;1.50;;;;;;;;;;5030498;28;20045;-52
2021/08/30 08:40:20;;;;;;;3.25;1.85;;;;;;;;;;5036310;28;20392;-52
2021/08/30 08:42:47;;;;;;;2.53;1.80;;;;;;;;;;5032884;28;20076;-52
2021/08/30 08:45:15;;;;;;;2.78;1.70;;;;;;;;;;5029585;28;20140;-55
2021/08/30 08:47:43;;;;;;;2.60;1.50;;;;;;;;;;5027596;28;20045;-56
2021/08/30 08:50:12;;;;;;;2.83;1.83;;;;;;;;;;5029713;28;20590;-56
2021/08/30 08:52:41;;;;;;;3.60;1.80;;;;;;;;;;5011353;28;20046;-55
2021/08/30 08:55:10;;;;;;;3.53;1.80;;;;;;;;;;5016665;28;20558;-53
2021/08/30 08:57:37;;;;;;;3.10;1.80;;;;;;;;;;5028132;28;20497;-55
2021/08/30 09:00:05;;;;;;;3.60;1.40;;;;;;;;;;5031307;28;20088;-57
2021/08/30 09:02:35;;;;;;;2.47;1.65;;;;;;;;;;5020129;28;20483;-54
2021/08/30 09:05:07;;;;;;;1.55;1.10;;;;;;;;;;5023425;28;20048;-55
2021/08/30 09:07:37;;;;;;;2.38;1.27;;;;;;;;;;5026432;28;20121;-54
2021/08/30 09:10:08;;;;;;;1.63;1.10;;;;;;;;;;5028094;28;20103;-54
2021/08/30 09:12:39;;;;;;;2.35;1.48;;;;;;;;;;5031130;28;20041;-56
2021/08/30 09:15:13;;;;;;;3.20;1.30;;;;;;;;;;5028700;28;20050;-55
2021/08/30 09:17:46;;;;;;;4.10;1.60;;;;;;;;;;5027676;28;20459;-52
2021/08/30 09:20:12;;;;;;;;;;;;;;;;;;5027791;28;20051;-55
2021/08/30 09:22:39;;;;;;;5.15;1.70;;;;;;;;;;5030995;28;20364;-55
2021/08/30 09:25:08;;;;;;;2.53;1.65;;;;;;;;;;5030460;28;20132;-53
2021/08/30 09:27:39;;;;;;;2.45;1.73;;;;;;;;;;5015385;28;20140;-54
2021/08/30 09:30:07;;;;;;;2.17;1.30;;;;;;;;;;5019469;28;20056;-53
2021/08/30 09:32:34;;;;;;;1.83;1.20;;;;;;;;;;5020626;28;20052;-53
2021/08/30 09:35:02;;;;;;;1.98;1.30;;;;;;;;;;5024338;28;20052;-56
2021/08/30 09:37:29;;;;;;;1.70;1.20;;;;;;;;;;5025694;28;20042;-56
2021/08/30 09:39:57;;;;;;;2.65;1.42;;;;;;;;;;5025158;28;20179;-53
2021/08/30 09:42:25;;;;;;;2.50;1.30;;;;;;;;;;5045666;28;20041;-52
2021/08/30 09:44:54;;;;;;;1.85;1.20;;;;;;;;;;5050211;28;20075;-53
2021/08/30 09:47:21;;;;;;;3.58;1.10;;;;;;;;;;5022836;28;20046;-51
2021/08/30 09:49:49;;;;;;;1.70;1.20;;;;;;;;;;5029887;28;20045;-52
2021/08/30 09:52:20;;;;;;;2.80;1.38;;;;;;;;;;5025786;28;20053;-56
2021/08/30 09:54:47;;;;;;;1.42;1.00;;;;;;;;;;5030517;28;20103;-53
2021/08/30 09:57:14;;;;;;;1.40;1.10;;;;;;;;;;5024790;28;20050;-55
2021/08/30 09:59:43;;;;;;;1.85;1.02;;;;;;;;;;5053859;28;20136;-55
2021/08/30 10:02:12;;;;;;;1.83;1.13;;;;;;;;;;5035737;28;20041;-55
2021/08/30 10:04:39;;;;;;;2.00;1.23;;;;;;;;;;5036543;28;20457;-55
2021/08/30 10:07:06;;;;;;;1.63;1.00;;;;;;;;;;5043377;28;20045;-51
2021/08/30 10:09:34;;;;;;;2.55;0.93;;;;;;;;;;5037788;28;20205;-55
2021/08/30 10:12:01;;;;;;;1.50;1.10;;;;;;;;;;5034153;28;20041;-52
2021/08/30 10:14:29;;;;;;;1.95;1.60;;;;;;;;;;5032064;28;20129;-53
2021/08/30 10:16:57;;;;;;;1.55;1.20;;;;;;;;;;5033780;28;20042;-50
2021/08/30 10:19:25;;;;;;;1.98;1.25;;;;;;;;;;5033734;28;20125;-54
2021/08/30 10:21:52;;;;;;;2.30;1.20;;;;;;;;;;5039625;28;20052;-52
2021/08/30 10:24:19;;;;;;;3.70;1.20;;;;;;;;;;5034111;28;20052;-48
2021/08/30 10:26:47;;;;;;;1.92;1.30;;;;;;;;;;5030207;28;20085;-49
2021/08/30 10:29:14;;;;;;;1.42;1.23;;;;;;;;;;5031129;28;20069;-50
2021/08/30 10:31:51;;;;;;;2.72;1.38;;;;;;;;;;5032882;28;20084;-51
2021/08/30 10:34:25;;;;;;;2.10;1.50;;;;;;;;;;5030058;28;20129;-51
2021/08/30 10:36:52;;;;;;;2.33;1.38;;;;;;;;;;5036576;28;20017;-52
2021/08/30 10:39:19;;;;;;;2.03;1.45;;;;;;;;;;5024590;28;20038;-49
2021/08/30 10:41:46;;;;;;;2.63;1.33;;;;;;;;;;5025455;28;20044;-51
2021/08/30 10:44:14;;;;;;;2.40;1.70;;;;;;;;;;5033911;28;20061;-52
2021/08/30 10:46:43;;;;;;;3.38;1.35;;;;;;;;;;5026352;28;20045;-53
2021/08/30 10:49:15;;;;;;;3.80;1.30;;;;;;;;;;5028270;28;20045;-52
2021/08/30 10:51:42;;;;;;;3.20;2.38;;;;;;;;;;5033176;28;20053;-53
2021/08/30 10:54:10;;;;;;;3.45;2.20;;;;;;;;;;5032653;28;20124;-53
2021/08/30 10:56:37;;;;;;;2.47;1.52;;;;;;;;;;5030102;28;20148;-53
2021/08/30 10:59:07;;;;;;;3.28;1.98;;;;;;;;;;5025762;28;20045;-49
2021/08/30 11:01:51;;;;;;;2.42;1.80;;;;;;;;;;5028891;28;20073;-49
2021/08/30 11:04:27;;;;;;;2.05;1.58;;;;;;;;;;5031171;28;20037;-51
2021/08/30 11:06:54;;;;;;;2.38;1.75;;;;;;;;;;5032921;28;20046;-49
2021/08/30 11:09:21;;;;;;;13.40;2.10;;;;;;;;;;5024794;28;20052;-50
2021/08/30 11:11:50;;;;;;;2.08;1.40;;;;;;;;;;5019625;28;20077;-50
2021/08/30 11:14:18;;;;;;;4.45;1.75;;;;;;;;;;5032294;28;20041;-50
2021/08/30 11:16:52;;;;;;;2.13;1.40;;;;;;;;;;5033634;28;20140;-49
2021/08/30 11:19:18;;;;;;;1.67;1.40;;;;;;;;;;5025249;28;20135;-49
2021/08/30 11:21:57;;;;;;;4.85;1.77;;;;;;;;;;5033638;28;20041;-49
2021/08/30 11:24:26;;;;;;;4.60;2.28;;;;;;;;;;5023491;28;20071;-51
2021/08/30 11:26:54;;;;;;;5.40;2.83;;;;;;;;;;5023055;28;20112;-48
2021/08/30 11:29:21;;;;;;;5.35;2.40;;;;;;;;;;5033327;28;20483;-47
2021/08/30 11:31:48;;;;;;;5.90;2.28;;;;;;;;;;5033515;28;20045;-48
2021/08/30 11:34:23;;;;;;;4.20;2.92;;;;;;;;;;5029767;28;20046;-48
2021/08/30 11:36:50;;;;;;;3.22;2.03;;;;;;;;;;5033570;28;20129;-50
2021/08/30 11:39:17;;;;;;;4.13;2.42;;;;;;;;;;5024409;28;20046;-52
2021/08/30 11:41:46;;;;;;;3.60;2.20;;;;;;;;;;5032197;28;20044;-52
2021/08/30 11:44:13;;;;;;;2.78;2.00;;;;;;;;;;5032083;28;20041;-48
2021/08/30 11:46:43;;;;;;;2.33;1.92;;;;;;;;;;5031720;28;20092;-49
2021/08/30 11:49:10;;;;;;;2.38;1.70;;;;;;;;;;5029822;28;20048;-50
2021/08/30 11:51:40;;;;;;;3.05;1.95;;;;;;;;;;5032627;28;20128;-48
2021/08/30 11:54:11;;;;;;;2.65;2.13;;;;;;;;;;5031889;28;20045;-50
2021/08/30 11:56:38;;;;;;;2.95;1.88;;;;;;;;;;5033243;28;20075;-50
2021/08/30 11:59:05;;;;;;;4.10;2.33;;;;;;;;;;5026765;28;20499;-51
2021/08/30 12:01:38;;;;;;;3.10;2.15;;;;;;;;;;5032148;28;20037;-51
2021/08/30 12:04:16;;;;;;;3.33;2.30;;;;;;;;;;5031055;28;20099;-51
2021/08/30 12:06:51;;;;;;;3.55;2.33;;;;;;;;;;5018259;28;20052;-50
2021/08/30 12:09:25;;;;;;;3.47;2.22;;;;;;;;;;5026101;28;20072;-48
2021/08/30 12:11:53;;;;;;;2.90;2.00;;;;;;;;;;5032797;28;20037;-48
2021/08/30 12:14:22;;;;;;;3.30;2.40;;;;;;;;;;5032067;28;20041;-48
2021/08/30 12:16:54;;;;;;;3.10;2.00;;;;;;;;;;5031361;28;20088;-50
2021/08/30 12:19:22;;;;;;;3.78;2.40;;;;;;;;;;5031011;28;20072;-49
2021/08/30 12:21:49;;;;;;;2.78;2.45;;;;;;;;;;5032116;28;20124;-48
2021/08/30 12:24:19;;;;;;;2.78;2.10;;;;;;;;;;5032911;28;20082;-48
2021/08/30 12:26:48;;;;;;;2.42;1.80;;;;;;;;;;5027180;28;20041;-48
2021/08/30 12:29:15;;;;;;;3.97;1.95;;;;;;;;;;5030770;28;20048;-49
2021/08/30 12:31:42;;;;;;;2.10;1.67;;;;;;;;;;5032317;28;20118;-48
2021/08/30 12:34:12;;;;;;;2.60;1.80;;;;;;;;;;5025352;28;20128;-52
2021/08/30 12:36:39;;;;;;;2.25;1.85;;;;;;;;;;5031517;28;20116;-49
2021/08/30 12:39:06;;;;;;;1.95;1.65;;;;;;;;;;5025548;28;20044;-50
2021/08/30 12:41:33;;;;;;;2.05;1.73;;;;;;;;;;5014650;28;20164;-48
2021/08/30 12:44:00;;;;;;;3.28;2.03;;;;;;;;;;5017917;28;20043;-53
2021/08/30 12:46:28;;;;;;;3.17;2.20;;;;;;;;;;5031177;28;20099;-48
2021/08/30 12:48:54;;;;;;;2.70;2.10;;;;;;;;;;5000799;28;20418;-50
2021/08/30 12:51:25;;;;;;;6.50;2.50;;;;;;;;;;5030006;28;20057;-51
2021/08/30 12:53:52;;;;;;;3.45;2.03;;;;;;;;;;5030794;28;20177;-48
2021/08/30 12:56:20;;;;;;;2.35;1.85;;;;;;;;;;5030777;28;20041;-52
2021/08/30 12:58:46;;;;;;;2.20;1.55;;;;;;;;;;5017278;28;20065;-51
2021/08/30 13:01:13;;;;;;;3.80;1.75;;;;;;;;;;5028797;28;20061;-49
2021/08/30 13:03:40;;;;;;;2.92;1.88;;;;;;;;;;5030607;28;20037;-50
2021/08/30 13:06:07;;;;;;;2.80;2.08;;;;;;;;;;5030762;28;20529;-50
2021/08/30 13:08:34;;;;;;;2.00;1.60;;;;;;;;;;5012436;28;20046;-50
2021/08/30 13:11:01;;;;;;;3.63;1.20;;;;;;;;;;5012209;28;20533;-49
2021/08/30 13:13:28;;;;;;;1.25;1.00;;;;;;;;;;5014419;28;20088;-52
2021/08/30 13:15:55;;;;;;;2.70;1.10;;;;;;;;;;5029420;28;20080;-50
2021/08/30 13:18:22;;;;;;;1.30;0.90;;;;;;;;;;5012892;28;20400;-48
2021/08/30 13:20:52;;;;;;;1.63;1.50;;;;;;;;;;5031379;28;20088;-50
2021/08/30 13:23:20;;;;;;;2.03;1.30;;;;;;;;;;5031033;28;20044;-52
2021/08/30 13:25:48;;;;;;;1.77;1.23;;;;;;;;;;5026632;28;20041;-51
2021/08/30 13:28:15;;;;;;;1.83;1.45;;;;;;;;;;5028619;28;20129;-49
2021/08/30 13:30:42;;;;;;;1.77;1.33;;;;;;;;;;5012305;28;20070;-49
2021/08/30 13:33:09;;;;;;;2.78;1.45;;;;;;;;;;5027828;28;20129;-51
2021/08/30 13:35:35;;;;;;;2.25;1.58;;;;;;;;;;5025727;28;20077;-51
2021/08/30 13:38:03;;;;;;;1.90;1.60;;;;;;;;;;5033637;28;20041;-47
2021/08/30 13:40:30;;;;;;;2.55;1.75;;;;;;;;;;5029733;28;20037;-50
2021/08/30 13:42:57;;;;;;;2.38;1.63;;;;;;;;;;5043147;28;20509;-48
2021/08/30 13:45:25;;;;;;;3.05;1.40;;;;;;;;;;5055159;28;20517;-50
2021/08/30 13:47:52;;;;;;;2.28;1.50;;;;;;;;;;5036266;28;20496;-50
2021/08/30 13:50:19;;;;;;;2.22;1.50;;;;;;;;;;5028938;28;20104;-48
2021/08/30 13:52:46;;;;;;;1.92;1.50;;;;;;;;;;5015906;28;20050;-48
2021/08/30 13:55:13;;;;;;;2.17;1.50;;;;;;;;;;5015448;28;20041;-50
2021/08/30 13:57:40;;;;;;;5.18;1.77;;;;;;;;;;5015255;28;20142;-48
2021/08/30 14:00:08;;;;;;;2.15;1.77;;;;;;;;;;5035058;28;20108;-48
2021/08/30 14:02:38;;;;;;;2.45;1.80;;;;;;;;;;5035610;28;20045;-50
2021/08/30 14:05:06;;;;;;;2.85;1.60;;;;;;;;;;5040548;28;20364;-49
2021/08/30 14:07:33;;;;;;;2.00;1.52;;;;;;;;;;5030075;28;20497;-51
2021/08/30 14:10:00;;;;;;;2.85;2.15;;;;;;;;;;5036801;28;20402;-49
2021/08/30 14:12:27;;;;;;;3.00;1.95;;;;;;;;;;5040393;28;20037;-50
2021/08/30 14:14:54;;;;;;;5.40;2.05;;;;;;;;;;5034506;28;20560;-50
2021/08/30 14:17:21;;;;;;;3.53;1.85;;;;;;;;;;5031358;28;20046;-49
2021/08/30 14:19:47;;;;;;;4.55;2.00;;;;;;;;;;5034918;28;20132;-50
2021/08/30 14:22:14;;;;;;;3.22;1.98;;;;;;;;;;5042292;28;20052;-49
2021/08/30 14:24:42;;;;;;;2.67;1.45;;;;;;;;;;5044605;28;20104;-50
2021/08/30 14:27:09;;;;;;;1.60;1.35;;;;;;;;;;5021472;28;20045;-48
2021/08/30 14:29:36;;;;;;;3.03;1.30;;;;;;;;;;5021985;28;20120;-49
2021/08/30 14:32:03;;;;;;;3.35;2.10;;;;;;;;;;5015859;28;20140;-47
2021/08/30 14:34:30;;;;;;;5.25;1.92;;;;;;;;;;5030723;28;20069;-49
2021/08/30 14:36:57;;;;;;;2.05;1.50;;;;;;;;;;5014642;28;20038;-47
2021/08/30 14:39:25;;;;;;;1.48;1.30;;;;;;;;;;5025091;28;20041;-51
2021/08/30 14:41:51;;;;;;;2.08;1.40;;;;;;;;;;5023623;28;20044;-50
2021/08/30 14:44:18;;;;;;;2.05;1.50;;;;;;;;;;5030624;28;20051;-48
2021/08/30 14:46:45;;;;;;;2.08;1.65;;;;;;;;;;5033765;28;20045;-48
2021/08/30 14:49:12;;;;;;;2.60;1.60;;;;;;;;;;5029872;28;20081;-48